sensor_id;sensor_type;location;lat;lon;timestamp;pressure;altitude;pressure_sealevel;temperature;humidity
70690;BME280;58267;51.156;17.044;2023-04-29T00:02:06;99887.05;;;17.01;30.18
70690;BME280;58267;51.156;17.044;2023-04-29T00:04:31;99885.21;;;17.01;30.07
70690;BME280;58267;51.156;17.044;2023-04-29T00:06:56;99884.72;;;16.94;30.17
70690;BME280;58267;51.156;17.044;2023-04-29T00:09:22;99882.14;;;17.08;29.94
70690;BME280;58267;51.156;17.044;2023-04-29T00:11:48;99879.87;;;17.16;29.87
70690;BME280;58267;51.156;17.044;2023-04-29T00:14:13;99877.38;;;17.22;29.76
70690;BME280;58267;51.156;17.044;2023-04-29T00:16:39;99879.68;;;17.17;29.92
70690;BME280;58267;51.156;17.044;2023-04-29T00:19:04;99878.74;;;17.08;29.92
70690;BME280;58267;51.156;17.044;2023-04-29T00:21:29;99879.93;;;16.86;29.89
70690;BME280;58267;51.156;17.044;2023-04-29T00:23:54;99880.30;;;17.08;29.81
70690;BME280;58267;51.156;17.044;2023-04-29T00:26:19;99878.73;;;16.94;29.96
70690;BME280;58267;51.156;17.044;2023-04-29T00:28:45;99879.04;;;17.07;29.85
70690;BME280;58267;51.156;17.044;2023-04-29T00:31:10;99878.59;;;17.20;29.83
70690;BME280;58267;51.156;17.044;2023-04-29T00:33:36;99880.55;;;17.28;29.75
70690;BME280;58267;51.156;17.044;2023-04-29T00:36:02;99879.30;;;17.40;29.71
70690;BME280;58267;51.156;17.044;2023-04-29T00:38:27;99876.14;;;17.35;29.96
70690;BME280;58267;51.156;17.044;2023-04-29T00:40:53;99875.95;;;17.30;29.97
70690;BME280;58267;51.156;17.044;2023-04-29T00:43:18;99872.67;;;17.33;29.92
70690;BME280;58267;51.156;17.044;2023-04-29T00:45:44;99868.03;;;17.09;30.12
70690;BME280;58267;51.156;17.044;2023-04-29T00:48:10;99865.02;;;17.47;29.87
70690;BME280;58267;51.156;17.044;2023-04-29T00:50:36;99867.03;;;17.32;30.00
70690;BME280;58267;51.156;17.044;2023-04-29T00:53:01;99867.06;;;16.94;30.18
70690;BME280;58267;51.156;17.044;2023-04-29T00:55:26;99866.81;;;17.32;30.01
70690;BME280;58267;51.156;17.044;2023-04-29T00:57:52;99865.07;;;17.31;30.04
70690;BME280;58267;51.156;17.044;2023-04-29T01:00:17;99858.96;;;17.23;30.06
70690;BME280;58267;51.156;17.044;2023-04-29T01:02:43;99858.00;;;17.10;30.26
70690;BME280;58267;51.156;17.044;2023-04-29T01:05:09;99858.85;;;16.91;30.49
70690;BME280;58267;51.156;17.044;2023-04-29T01:07:41;99857.33;;;16.81;30.56
70690;BME280;58267;51.156;17.044;2023-04-29T01:10:03;99854.34;;;16.65;30.46
70690;BME280;58267;51.156;17.044;2023-04-29T01:12:32;99855.36;;;16.89;30.45
70690;BME280;58267;51.156;17.044;2023-04-29T01:14:58;99853.37;;;16.82;30.53
70690;BME280;58267;51.156;17.044;2023-04-29T01:17:18;99853.27;;;16.99;30.70
70690;BME280;58267;51.156;17.044;2023-04-29T01:19:46;99853.17;;;16.64;30.79
70690;BME280;58267;51.156;17.044;2023-04-29T01:22:07;99852.10;;;16.75;30.76
70690;BME280;58267;51.156;17.044;2023-04-29T01:24:33;99850.15;;;16.92;30.81
70690;BME280;58267;51.156;17.044;2023-04-29T01:27:07;99848.33;;;17.11;30.86
70690;BME280;58267;51.156;17.044;2023-04-29T01:29:31;99845.50;;;16.89;30.80
70690;BME280;58267;51.156;17.044;2023-04-29T01:31:57;99842.21;;;16.40;31.05
70690;BME280;58267;51.156;17.044;2023-04-29T01:34:22;99844.90;;;16.67;31.02
70690;BME280;58267;51.156;17.044;2023-04-29T01:36:50;99844.61;;;16.31;31.06
70690;BME280;58267;51.156;17.044;2023-04-29T01:39:13;99847.54;;;16.68;30.97
70690;BME280;58267;51.156;17.044;2023-04-29T01:41:38;99852.61;;;16.34;31.06
70690;BME280;58267;51.156;17.044;2023-04-29T01:43:58;99853.22;;;16.71;31.05
70690;BME280;58267;51.156;17.044;2023-04-29T01:46:23;99853.95;;;16.52;30.86
70690;BME280;58267;51.156;17.044;2023-04-29T01:48:52;99855.83;;;16.52;30.89
70690;BME280;58267;51.156;17.044;2023-04-29T01:51:14;99857.22;;;16.45;30.90
70690;BME280;58267;51.156;17.044;2023-04-29T01:53:40;99857.69;;;16.60;31.09
70690;BME280;58267;51.156;17.044;2023-04-29T01:56:06;99859.59;;;16.44;31.18
70690;BME280;58267;51.156;17.044;2023-04-29T01:58:31;99861.24;;;16.72;31.17
70690;BME280;58267;51.156;17.044;2023-04-29T02:00:56;99859.46;;;16.52;31.11
70690;BME280;58267;51.156;17.044;2023-04-29T02:03:22;99857.54;;;16.45;31.46
70690;BME280;58267;51.156;17.044;2023-04-29T02:05:48;99856.26;;;16.44;31.22
70690;BME280;58267;51.156;17.044;2023-04-29T02:08:13;99854.99;;;16.32;30.97
70690;BME280;58267;51.156;17.044;2023-04-29T02:10:39;99852.23;;;16.83;31.04
70690;BME280;58267;51.156;17.044;2023-04-29T02:13:04;99852.55;;;16.61;31.30
70690;BME280;58267;51.156;17.044;2023-04-29T02:15:30;99850.52;;;16.00;31.46
70690;BME280;58267;51.156;17.044;2023-04-29T02:17:55;99847.82;;;16.18;31.47
70690;BME280;58267;51.156;17.044;2023-04-29T02:20:20;99847.99;;;16.40;31.49
70690;BME280;58267;51.156;17.044;2023-04-29T02:22:46;99846.80;;;16.21;31.42
70690;BME280;58267;51.156;17.044;2023-04-29T02:25:12;99845.36;;;16.25;31.37
70690;BME280;58267;51.156;17.044;2023-04-29T02:27:37;99844.52;;;16.24;31.47
70690;BME280;58267;51.156;17.044;2023-04-29T02:30:03;99843.15;;;15.91;31.55
70690;BME280;58267;51.156;17.044;2023-04-29T02:32:28;99843.46;;;16.53;31.34
70690;BME280;58267;51.156;17.044;2023-04-29T02:34:54;99841.31;;;16.28;31.38
70690;BME280;58267;51.156;17.044;2023-04-29T02:37:20;99841.15;;;16.16;31.59
70690;BME280;58267;51.156;17.044;2023-04-29T02:39:45;99840.80;;;16.58;31.31
70690;BME280;58267;51.156;17.044;2023-04-29T02:42:10;99840.39;;;16.34;31.23
70690;BME280;58267;51.156;17.044;2023-04-29T02:44:36;99844.11;;;16.36;31.93
70690;BME280;58267;51.156;17.044;2023-04-29T02:47:01;99844.92;;;16.14;32.25
70690;BME280;58267;51.156;17.044;2023-04-29T02:49:27;99843.34;;;16.07;32.29
70690;BME280;58267;51.156;17.044;2023-04-29T02:51:52;99839.03;;;16.27;31.88
70690;BME280;58267;51.156;17.044;2023-04-29T02:54:17;99835.38;;;16.19;31.89
70690;BME280;58267;51.156;17.044;2023-04-29T02:56:42;99833.31;;;16.19;31.80
70690;BME280;58267;51.156;17.044;2023-04-29T02:59:08;99834.70;;;16.04;32.09
70690;BME280;58267;51.156;17.044;2023-04-29T03:01:34;99831.31;;;16.01;32.11
70690;BME280;58267;51.156;17.044;2023-04-29T03:03:59;99829.49;;;16.23;32.10
70690;BME280;58267;51.156;17.044;2023-04-29T03:06:25;99821.83;;;15.90;32.27
70690;BME280;58267;51.156;17.044;2023-04-29T03:08:51;99818.03;;;16.09;32.14
70690;BME280;58267;51.156;17.044;2023-04-29T03:11:17;99818.01;;;15.72;32.69
70690;BME280;58267;51.156;17.044;2023-04-29T03:13:42;99819.43;;;15.88;32.34
70690;BME280;58267;51.156;17.044;2023-04-29T03:16:08;99817.96;;;15.95;32.25
70690;BME280;58267;51.156;17.044;2023-04-29T03:18:33;99817.35;;;16.08;32.24
70690;BME280;58267;51.156;17.044;2023-04-29T03:20:59;99813.50;;;15.84;32.63
70690;BME280;58267;51.156;17.044;2023-04-29T03:23:24;99811.04;;;15.77;32.61
70690;BME280;58267;51.156;17.044;2023-04-29T03:25:49;99809.07;;;15.45;32.89
70690;BME280;58267;51.156;17.044;2023-04-29T03:28:14;99810.17;;;15.71;32.94
70690;BME280;58267;51.156;17.044;2023-04-29T03:30:39;99808.17;;;15.69;33.03
70690;BME280;58267;51.156;17.044;2023-04-29T03:33:05;99809.37;;;15.88;32.78
70690;BME280;58267;51.156;17.044;2023-04-29T03:35:30;99807.15;;;16.13;32.69
70690;BME280;58267;51.156;17.044;2023-04-29T03:37:56;99802.70;;;15.90;32.73
70690;BME280;58267;51.156;17.044;2023-04-29T03:40:22;99805.43;;;15.41;33.11
70690;BME280;58267;51.156;17.044;2023-04-29T03:42:47;99802.98;;;15.59;32.94
70690;BME280;58267;51.156;17.044;2023-04-29T03:45:12;99797.18;;;15.76;32.66
70690;BME280;58267;51.156;17.044;2023-04-29T03:47:37;99794.93;;;15.78;32.56
70690;BME280;58267;51.156;17.044;2023-04-29T03:50:04;99794.24;;;15.77;32.50
70690;BME280;58267;51.156;17.044;2023-04-29T03:52:28;99794.51;;;15.79;32.53
70690;BME280;58267;51.156;17.044;2023-04-29T03:54:54;99795.40;;;15.84;32.60
70690;BME280;58267;51.156;17.044;2023-04-29T03:57:20;99798.74;;;15.99;32.37
70690;BME280;58267;51.156;17.044;2023-04-29T03:59:45;99800.01;;;15.89;32.67
70690;BME280;58267;51.156;17.044;2023-04-29T04:02:10;99803.11;;;15.82;32.59
70690;BME280;58267;51.156;17.044;2023-04-29T04:04:36;99803.53;;;15.71;32.83
70690;BME280;58267;51.156;17.044;2023-04-29T04:07:02;99806.72;;;15.63;33.02
70690;BME280;58267;51.156;17.044;2023-04-29T04:09:28;99811.22;;;15.42;33.40
70690;BME280;58267;51.156;17.044;2023-04-29T04:11:53;99820.00;;;15.02;33.70
70690;BME280;58267;51.156;17.044;2023-04-29T04:14:19;99819.58;;;15.59;33.59
70690;BME280;58267;51.156;17.044;2023-04-29T04:16:44;99820.76;;;15.61;33.35
70690;BME280;58267;51.156;17.044;2023-04-29T04:19:10;99820.62;;;15.52;33.17
70690;BME280;58267;51.156;17.044;2023-04-29T04:21:35;99818.19;;;16.07;33.01
70690;BME280;58267;51.156;17.044;2023-04-29T04:24:01;99816.73;;;15.59;32.98
70690;BME280;58267;51.156;17.044;2023-04-29T04:26:26;99817.81;;;15.61;32.97
70690;BME280;58267;51.156;17.044;2023-04-29T04:28:51;99817.95;;;15.73;32.98
70690;BME280;58267;51.156;17.044;2023-04-29T04:31:17;99817.47;;;15.93;32.80
70690;BME280;58267;51.156;17.044;2023-04-29T04:33:42;99815.11;;;15.80;33.08
70690;BME280;58267;51.156;17.044;2023-04-29T04:36:08;99813.78;;;15.87;33.17
70690;BME280;58267;51.156;17.044;2023-04-29T04:38:34;99810.58;;;15.85;33.30
70690;BME280;58267;51.156;17.044;2023-04-29T04:40:59;99806.55;;;16.00;33.41
70690;BME280;58267;51.156;17.044;2023-04-29T04:43:24;99804.75;;;15.78;34.19
70690;BME280;58267;51.156;17.044;2023-04-29T04:45:50;99802.67;;;15.76;34.62
70690;BME280;58267;51.156;17.044;2023-04-29T04:48:16;99802.22;;;15.62;34.72
70690;BME280;58267;51.156;17.044;2023-04-29T04:50:41;99796.57;;;15.67;34.71
70690;BME280;58267;51.156;17.044;2023-04-29T04:53:07;99791.21;;;16.02;34.53
70690;BME280;58267;51.156;17.044;2023-04-29T04:55:33;99786.00;;;15.89;34.22
70690;BME280;58267;51.156;17.044;2023-04-29T04:57:58;99782.36;;;15.76;33.87
70690;BME280;58267;51.156;17.044;2023-04-29T05:00:23;99786.60;;;16.07;33.74
70690;BME280;58267;51.156;17.044;2023-04-29T05:02:48;99795.87;;;16.19;33.38
70690;BME280;58267;51.156;17.044;2023-04-29T05:05:14;99801.22;;;16.28;33.31
70690;BME280;58267;51.156;17.044;2023-04-29T05:07:39;99808.35;;;16.37;33.12
70690;BME280;58267;51.156;17.044;2023-04-29T05:10:06;99808.72;;;16.27;33.16
70690;BME280;58267;51.156;17.044;2023-04-29T05:12:30;99808.66;;;16.14;32.98
70690;BME280;58267;51.156;17.044;2023-04-29T05:14:56;99810.39;;;16.42;33.09
70690;BME280;58267;51.156;17.044;2023-04-29T05:17:22;99808.77;;;16.37;33.29
70690;BME280;58267;51.156;17.044;2023-04-29T05:19:47;99811.08;;;16.48;33.17
70690;BME280;58267;51.156;17.044;2023-04-29T05:22:15;99811.10;;;16.22;33.33
70690;BME280;58267;51.156;17.044;2023-04-29T05:24:40;99809.79;;;16.39;33.13
70690;BME280;58267;51.156;17.044;2023-04-29T05:27:06;99806.68;;;16.47;33.05
70690;BME280;58267;51.156;17.044;2023-04-29T05:29:31;99807.05;;;16.42;32.82
70690;BME280;58267;51.156;17.044;2023-04-29T05:31:56;99806.74;;;16.79;32.84
70690;BME280;58267;51.156;17.044;2023-04-29T05:34:22;99808.55;;;16.59;32.82
70690;BME280;58267;51.156;17.044;2023-04-29T05:36:47;99808.95;;;16.93;32.64
70690;BME280;58267;51.156;17.044;2023-04-29T05:39:13;99807.37;;;16.59;32.78
70690;BME280;58267;51.156;17.044;2023-04-29T05:41:38;99810.99;;;16.66;32.72
70690;BME280;58267;51.156;17.044;2023-04-29T05:44:04;99814.44;;;17.31;32.64
70690;BME280;58267;51.156;17.044;2023-04-29T05:46:29;99813.34;;;16.85;32.52
70690;BME280;58267;51.156;17.044;2023-04-29T05:48:55;99813.67;;;16.94;32.71
70690;BME280;58267;51.156;17.044;2023-04-29T05:51:20;99811.13;;;17.03;32.67
70690;BME280;58267;51.156;17.044;2023-04-29T05:53:45;99812.13;;;17.34;32.44
70690;BME280;58267;51.156;17.044;2023-04-29T05:56:10;99808.67;;;17.41;32.29
70690;BME280;58267;51.156;17.044;2023-04-29T05:58:36;99810.59;;;17.31;31.86
70690;BME280;58267;51.156;17.044;2023-04-29T06:01:01;99813.34;;;17.57;31.82
70690;BME280;58267;51.156;17.044;2023-04-29T06:03:26;99817.63;;;17.63;31.99
70690;BME280;58267;51.156;17.044;2023-04-29T06:05:52;99819.43;;;17.37;32.27
70690;BME280;58267;51.156;17.044;2023-04-29T06:08:18;99818.09;;;17.50;32.15
70690;BME280;58267;51.156;17.044;2023-04-29T06:10:43;99815.37;;;17.81;32.24
70690;BME280;58267;51.156;17.044;2023-04-29T06:13:09;99808.93;;;17.75;32.25
70690;BME280;58267;51.156;17.044;2023-04-29T06:15:35;99807.93;;;18.03;31.66
70690;BME280;58267;51.156;17.044;2023-04-29T06:17:59;99807.99;;;18.14;31.83
70690;BME280;58267;51.156;17.044;2023-04-29T06:20:25;99808.61;;;18.19;31.81
70690;BME280;58267;51.156;17.044;2023-04-29T06:22:50;99815.91;;;18.33;31.64
70690;BME280;58267;51.156;17.044;2023-04-29T06:25:16;99820.89;;;18.22;31.70
70690;BME280;58267;51.156;17.044;2023-04-29T06:27:42;99825.63;;;17.83;31.34
70690;BME280;58267;51.156;17.044;2023-04-29T06:30:08;99829.36;;;17.64;31.95
70690;BME280;58267;51.156;17.044;2023-04-29T06:32:33;99831.43;;;17.72;31.88
70690;BME280;58267;51.156;17.044;2023-04-29T06:34:58;99831.69;;;18.02;31.99
70690;BME280;58267;51.156;17.044;2023-04-29T06:37:24;99828.80;;;17.80;31.95
70690;BME280;58267;51.156;17.044;2023-04-29T06:39:49;99822.69;;;17.83;31.81
70690;BME280;58267;51.156;17.044;2023-04-29T06:42:14;99828.11;;;17.99;31.98
70690;BME280;58267;51.156;17.044;2023-04-29T06:44:40;99834.19;;;17.71;32.01
70690;BME280;58267;51.156;17.044;2023-04-29T06:47:05;99837.97;;;17.54;32.24
70690;BME280;58267;51.156;17.044;2023-04-29T06:49:31;99838.98;;;17.42;32.41
70690;BME280;58267;51.156;17.044;2023-04-29T06:51:56;99839.97;;;17.57;33.03
70690;BME280;58267;51.156;17.044;2023-04-29T06:54:22;99841.54;;;17.68;32.79
70690;BME280;58267;51.156;17.044;2023-04-29T06:56:47;99842.42;;;16.92;33.50
70690;BME280;58267;51.156;17.044;2023-04-29T06:59:13;99840.01;;;17.17;33.66
70690;BME280;58267;51.156;17.044;2023-04-29T07:01:39;99842.01;;;16.97;33.87
70690;BME280;58267;51.156;17.044;2023-04-29T07:04:05;99840.78;;;16.84;33.83
70690;BME280;58267;51.156;17.044;2023-04-29T07:06:30;99841.46;;;16.06;36.18
70690;BME280;58267;51.156;17.044;2023-04-29T07:08:56;99843.10;;;16.20;36.20
70690;BME280;58267;51.156;17.044;2023-04-29T07:11:22;99842.82;;;15.88;37.44
70690;BME280;58267;51.156;17.044;2023-04-29T07:13:47;99840.82;;;16.44;37.44
70690;BME280;58267;51.156;17.044;2023-04-29T07:16:16;99843.73;;;16.72;37.07
70690;BME280;58267;51.156;17.044;2023-04-29T07:18:39;99844.09;;;16.72;37.62
70690;BME280;58267;51.156;17.044;2023-04-29T07:21:04;99844.88;;;16.36;38.14
70690;BME280;58267;51.156;17.044;2023-04-29T07:23:34;99844.90;;;16.58;37.72
70690;BME280;58267;51.156;17.044;2023-04-29T07:25:55;99846.13;;;16.64;37.91
70690;BME280;58267;51.156;17.044;2023-04-29T07:28:20;99843.63;;;16.54;38.31
70690;BME280;58267;51.156;17.044;2023-04-29T07:30:45;99846.50;;;16.40;39.22
70690;BME280;58267;51.156;17.044;2023-04-29T07:33:10;99841.11;;;16.19;39.76
70690;BME280;58267;51.156;17.044;2023-04-29T07:35:35;99840.60;;;15.84;39.85
70690;BME280;58267;51.156;17.044;2023-04-29T07:38:00;99841.37;;;16.03;39.89
70690;BME280;58267;51.156;17.044;2023-04-29T07:40:26;99841.95;;;16.31;39.47
70690;BME280;58267;51.156;17.044;2023-04-29T07:42:52;99846.94;;;16.38;39.67
70690;BME280;58267;51.156;17.044;2023-04-29T07:45:17;99849.06;;;16.59;39.08
70690;BME280;58267;51.156;17.044;2023-04-29T07:47:42;99848.06;;;16.73;39.29
70690;BME280;58267;51.156;17.044;2023-04-29T07:50:08;99850.55;;;17.08;39.29
70690;BME280;58267;51.156;17.044;2023-04-29T07:52:33;99850.14;;;16.93;39.16
70690;BME280;58267;51.156;17.044;2023-04-29T07:54:59;99848.51;;;16.83;39.11
70690;BME280;58267;51.156;17.044;2023-04-29T07:57:25;99851.01;;;16.85;39.19
70690;BME280;58267;51.156;17.044;2023-04-29T07:59:51;99851.88;;;16.87;38.86
70690;BME280;58267;51.156;17.044;2023-04-29T08:02:15;99853.34;;;16.86;39.11
70690;BME280;58267;51.156;17.044;2023-04-29T08:04:41;99854.27;;;17.00;39.41
70690;BME280;58267;51.156;17.044;2023-04-29T08:07:06;99854.82;;;16.84;39.59
70690;BME280;58267;51.156;17.044;2023-04-29T08:09:32;99852.53;;;16.72;40.37
70690;BME280;58267;51.156;17.044;2023-04-29T08:11:58;99851.20;;;16.78;40.29
70690;BME280;58267;51.156;17.044;2023-04-29T08:14:23;99849.94;;;16.73;40.66
70690;BME280;58267;51.156;17.044;2023-04-29T08:16:49;99850.63;;;16.75;40.67
70690;BME280;58267;51.156;17.044;2023-04-29T08:19:15;99859.99;;;16.63;40.78
70690;BME280;58267;51.156;17.044;2023-04-29T08:21:45;99858.07;;;16.71;41.11
70690;BME280;58267;51.156;17.044;2023-04-29T08:24:06;99864.04;;;16.49;41.09
70690;BME280;58267;51.156;17.044;2023-04-29T08:26:31;99868.83;;;16.55;41.11
70690;BME280;58267;51.156;17.044;2023-04-29T08:28:57;99869.50;;;16.85;41.34
70690;BME280;58267;51.156;17.044;2023-04-29T08:31:22;99873.39;;;16.60;41.35
70690;BME280;58267;51.156;17.044;2023-04-29T08:33:48;99870.29;;;16.27;42.20
70690;BME280;58267;51.156;17.044;2023-04-29T08:36:14;99874.04;;;16.76;42.13
70690;BME280;58267;51.156;17.044;2023-04-29T08:38:40;99875.20;;;16.38;41.85
70690;BME280;58267;51.156;17.044;2023-04-29T08:41:07;99875.88;;;16.72;41.37
70690;BME280;58267;51.156;17.044;2023-04-29T08:43:31;99880.86;;;16.59;41.79
70690;BME280;58267;51.156;17.044;2023-04-29T08:45:57;99878.48;;;16.44;41.84
70690;BME280;58267;51.156;17.044;2023-04-29T08:48:22;99881.27;;;16.56;42.09
70690;BME280;58267;51.156;17.044;2023-04-29T08:50:47;99884.23;;;16.46;42.95
70690;BME280;58267;51.156;17.044;2023-04-29T08:53:14;99885.66;;;16.70;42.10
70690;BME280;58267;51.156;17.044;2023-04-29T08:55:43;99882.91;;;16.81;41.87
70690;BME280;58267;51.156;17.044;2023-04-29T08:58:04;99887.80;;;16.84;42.34
70690;BME280;58267;51.156;17.044;2023-04-29T09:00:31;99889.24;;;16.93;42.13
70690;BME280;58267;51.156;17.044;2023-04-29T09:02:55;99890.22;;;17.08;41.10
70690;BME280;58267;51.156;17.044;2023-04-29T09:05:20;99893.94;;;16.97;41.85
70690;BME280;58267;51.156;17.044;2023-04-29T09:07:46;99893.28;;;17.04;42.02
70690;BME280;58267;51.156;17.044;2023-04-29T09:10:11;99898.17;;;17.22;41.50
70690;BME280;58267;51.156;17.044;2023-04-29T09:12:36;99897.29;;;17.46;41.21
70690;BME280;58267;51.156;17.044;2023-04-29T09:15:02;99899.20;;;16.93;41.85
70690;BME280;58267;51.156;17.044;2023-04-29T09:19:52;99897.02;;;17.25;41.44
70690;BME280;58267;51.156;17.044;2023-04-29T09:22:18;99898.49;;;16.98;41.08
70690;BME280;58267;51.156;17.044;2023-04-29T09:24:44;99899.73;;;17.26;41.66
70690;BME280;58267;51.156;17.044;2023-04-29T09:27:09;99896.75;;;17.54;41.07
70690;BME280;58267;51.156;17.044;2023-04-29T09:29:35;99894.71;;;17.84;40.92
70690;BME280;58267;51.156;17.044;2023-04-29T09:34:31;99894.31;;;18.10;40.92
70690;BME280;58267;51.156;17.044;2023-04-29T09:36:51;99896.76;;;18.23;40.64
70690;BME280;58267;51.156;17.044;2023-04-29T09:39:17;99890.97;;;18.76;40.43
70690;BME280;58267;51.156;17.044;2023-04-29T09:44:08;99893.98;;;17.98;40.41
70690;BME280;58267;51.156;17.044;2023-04-29T09:46:33;99891.33;;;18.67;39.44
70690;BME280;58267;51.156;17.044;2023-04-29T09:48:58;99893.13;;;18.37;38.78
70690;BME280;58267;51.156;17.044;2023-04-29T09:51:24;99891.28;;;18.25;38.74
70690;BME280;58267;51.156;17.044;2023-04-29T09:53:50;99894.42;;;18.48;39.50
70690;BME280;58267;51.156;17.044;2023-04-29T09:56:15;99894.70;;;18.83;38.51
70690;BME280;58267;51.156;17.044;2023-04-29T09:58:41;99896.74;;;18.17;38.86
70690;BME280;58267;51.156;17.044;2023-04-29T10:01:06;99895.17;;;18.43;38.92
70690;BME280;58267;51.156;17.044;2023-04-29T10:03:33;99897.77;;;18.65;39.10
70690;BME280;58267;51.156;17.044;2023-04-29T10:05:57;99905.25;;;18.44;39.17
70690;BME280;58267;51.156;17.044;2023-04-29T10:08:23;99903.98;;;18.70;37.84
70690;BME280;58267;51.156;17.044;2023-04-29T10:10:48;99905.53;;;18.94;37.42
70690;BME280;58267;51.156;17.044;2023-04-29T10:13:13;99905.73;;;19.36;37.22
70690;BME280;58267;51.156;17.044;2023-04-29T10:15:46;99909.01;;;19.62;36.83
70690;BME280;58267;51.156;17.044;2023-04-29T10:18:11;99908.41;;;18.78;37.45
70690;BME280;58267;51.156;17.044;2023-04-29T10:20:30;99910.20;;;18.78;36.97
70690;BME280;58267;51.156;17.044;2023-04-29T10:22:55;99909.43;;;18.90;37.09
70690;BME280;58267;51.156;17.044;2023-04-29T10:25:22;99908.37;;;19.11;37.02
70690;BME280;58267;51.156;17.044;2023-04-29T10:27:47;99904.39;;;19.11;36.91
70690;BME280;58267;51.156;17.044;2023-04-29T10:30:13;99901.48;;;19.47;35.88
70690;BME280;58267;51.156;17.044;2023-04-29T10:32:40;99902.34;;;19.61;36.00
70690;BME280;58267;51.156;17.044;2023-04-29T10:35:04;99898.26;;;19.72;36.08
70690;BME280;58267;51.156;17.044;2023-04-29T10:37:29;99899.06;;;19.26;36.77
70690;BME280;58267;51.156;17.044;2023-04-29T10:40:04;99897.01;;;19.29;37.09
70690;BME280;58267;51.156;17.044;2023-04-29T10:42:27;99892.66;;;19.35;36.28
70690;BME280;58267;51.156;17.044;2023-04-29T10:47:18;99885.87;;;19.37;35.83
70690;BME280;58267;51.156;17.044;2023-04-29T10:49:36;99884.56;;;19.67;35.44
70690;BME280;58267;51.156;17.044;2023-04-29T10:52:03;99883.73;;;19.46;34.67
70690;BME280;58267;51.156;17.044;2023-04-29T10:54:27;99880.95;;;19.45;35.51
70690;BME280;58267;51.156;17.044;2023-04-29T10:56:52;99883.07;;;19.49;35.18
70690;BME280;58267;51.156;17.044;2023-04-29T10:59:21;99879.16;;;19.87;35.22
70690;BME280;58267;51.156;17.044;2023-04-29T11:01:45;99879.28;;;19.99;34.87
70690;BME280;58267;51.156;17.044;2023-04-29T11:04:08;99874.41;;;20.23;34.29
70690;BME280;58267;51.156;17.044;2023-04-29T11:06:38;99875.90;;;20.22;33.77
70690;BME280;58267;51.156;17.044;2023-04-29T11:09:01;99873.14;;;19.19;33.96
70690;BME280;58267;51.156;17.044;2023-04-29T11:11:24;99872.43;;;19.77;34.64
70690;BME280;58267;51.156;17.044;2023-04-29T11:13:49;99871.80;;;19.29;34.36
70690;BME280;58267;51.156;17.044;2023-04-29T11:16:14;99871.03;;;20.19;33.45
70690;BME280;58267;51.156;17.044;2023-04-29T11:21:11;99876.30;;;17.92;36.62
70690;BME280;58267;51.156;17.044;2023-04-29T11:23:33;99874.69;;;19.15;34.94
70690;BME280;58267;51.156;17.044;2023-04-29T11:25:57;99872.76;;;19.24;34.58
70690;BME280;58267;51.156;17.044;2023-04-29T11:28:23;99871.12;;;19.76;34.41
70690;BME280;58267;51.156;17.044;2023-04-29T11:30:49;99874.77;;;19.88;32.75
70690;BME280;58267;51.156;17.044;2023-04-29T11:33:13;99874.56;;;19.35;34.25
70690;BME280;58267;51.156;17.044;2023-04-29T11:35:39;99874.92;;;19.39;34.12
70690;BME280;58267;51.156;17.044;2023-04-29T11:38:03;99873.86;;;19.38;34.13
70690;BME280;58267;51.156;17.044;2023-04-29T11:40:32;99869.24;;;20.22;33.06
70690;BME280;58267;51.156;17.044;2023-04-29T11:42:54;99870.18;;;20.61;33.09
70690;BME280;58267;51.156;17.044;2023-04-29T11:45:20;99871.04;;;19.92;33.80
70690;BME280;58267;51.156;17.044;2023-04-29T11:47:46;99870.93;;;20.43;32.75
70690;BME280;58267;51.156;17.044;2023-04-29T11:50:10;99870.55;;;20.93;32.22
70690;BME280;58267;51.156;17.044;2023-04-29T11:52:37;99867.89;;;20.82;31.65
70690;BME280;58267;51.156;17.044;2023-04-29T11:55:01;99866.87;;;21.52;30.93
70690;BME280;58267;51.156;17.044;2023-04-29T11:57:26;99864.79;;;21.88;30.78
70690;BME280;58267;51.156;17.044;2023-04-29T11:59:51;99861.73;;;21.73;30.24
70690;BME280;58267;51.156;17.044;2023-04-29T12:02:16;99867.69;;;21.30;30.50
70690;BME280;58267;51.156;17.044;2023-04-29T12:04:45;99870.43;;;21.42;29.75
70690;BME280;58267;51.156;17.044;2023-04-29T12:07:09;99870.20;;;20.39;30.48
70690;BME280;58267;51.156;17.044;2023-04-29T12:09:40;99867.55;;;20.56;31.18
70690;BME280;58267;51.156;17.044;2023-04-29T12:11:57;99870.91;;;20.88;31.22
70690;BME280;58267;51.156;17.044;2023-04-29T12:14:22;99867.26;;;20.66;31.67
70690;BME280;58267;51.156;17.044;2023-04-29T12:16:47;99868.40;;;20.98;31.63
70690;BME280;58267;51.156;17.044;2023-04-29T12:19:12;99874.65;;;19.54;32.58
70690;BME280;58267;51.156;17.044;2023-04-29T12:21:48;99874.04;;;18.59;34.67
70690;BME280;58267;51.156;17.044;2023-04-29T12:24:03;99887.26;;;17.10;37.33
70690;BME280;58267;51.156;17.044;2023-04-29T12:26:29;99890.14;;;17.38;38.77
70690;BME280;58267;51.156;17.044;2023-04-29T12:28:55;99887.23;;;17.86;39.64
70690;BME280;58267;51.156;17.044;2023-04-29T12:31:19;99880.94;;;18.23;38.80
70690;BME280;58267;51.156;17.044;2023-04-29T12:33:44;99880.61;;;19.33;38.06
70690;BME280;58267;51.156;17.044;2023-04-29T12:36:16;99878.51;;;19.22;37.77
70690;BME280;58267;51.156;17.044;2023-04-29T12:38:34;99872.02;;;19.05;37.55
70690;BME280;58267;51.156;17.044;2023-04-29T12:41:00;99870.15;;;19.78;37.17
70690;BME280;58267;51.156;17.044;2023-04-29T12:43:26;99870.10;;;19.48;37.32
70690;BME280;58267;51.156;17.044;2023-04-29T12:45:53;99869.56;;;19.41;37.02
70690;BME280;58267;51.156;17.044;2023-04-29T12:48:16;99867.57;;;20.00;37.74
70690;BME280;58267;51.156;17.044;2023-04-29T12:50:41;99867.91;;;20.22;37.73
70690;BME280;58267;51.156;17.044;2023-04-29T12:53:07;99866.94;;;20.62;36.47